Terminal Aerodrome Forecast
Issued by NWS

Home | Current Version | Previous Version | Text Only | Print | Product List | Glossary On
Versions: 1 2 3 4 5 6 7 8 9 10 11 12 13 14 15 16 17 18 19
595
FTUS44 KLZK 241740
TAFLIT
TAF
KLIT 241740Z 2418/2518 15010G18KT P6SM BKN250
     FM250100 17009G16KT P6SM BKN250
     FM251100 22009G16KT P6SM BKN020 BKN250
     FM251500 26008KT P6SM SCT035 BKN250=

USA.gov is the U.S. government's official web portal to all federal, state and local government web resources and services.